createdAt,value
2019-02-14T00:00:52.298Z,63.87
2019-02-14T00:03:20.956Z,65.47
2019-02-14T00:05:49.645Z,75.50
2019-02-14T00:08:18.328Z,51.68
2019-02-14T00:10:47.019Z,68.17
2019-02-14T00:13:15.409Z,82.60
2019-02-14T00:15:43.799Z,69.32
2019-02-14T00:18:12.203Z,72.67
2019-02-14T00:20:40.598Z,59.95
2019-02-14T00:23:09.063Z,59.55
2019-02-14T00:25:37.800Z,63.60
2019-02-14T00:28:06.489Z,64.05
2019-02-14T00:30:34.951Z,51.37
2019-02-14T00:33:03.336Z,69.70
2019-02-14T00:35:32.040Z,64.97
2019-02-14T00:38:00.718Z,54.80
2019-02-14T00:40:29.409Z,56.98
2019-02-14T00:42:57.800Z,58.92
2019-02-14T00:45:26.197Z,64.55
2019-02-14T00:47:54.604Z,57.13
2019-02-14T00:50:22.991Z,75.72
2019-02-14T00:52:51.389Z,62.27
2019-02-14T00:55:19.861Z,57.30
2019-02-14T00:57:49.840Z,54.55
2019-02-14T01:00:18.233Z,64.50
2019-02-14T01:02:46.629Z,56.90
2019-02-14T01:05:16.457Z,61.85
2019-02-14T01:07:45.020Z,57.50
2019-02-14T01:10:13.437Z,64.45
2019-02-14T01:12:42.116Z,65.05
2019-02-14T01:15:10.907Z,48.28
2019-02-14T01:17:39.309Z,50.38
2019-02-14T01:20:08.041Z,62.08
2019-02-14T01:22:36.451Z,56.15
2019-02-14T01:25:06.261Z,65.00
2019-02-14T01:27:34.656Z,60.40
2019-02-14T01:30:03.126Z,58.30
2019-02-14T01:32:31.815Z,57.70
2019-02-14T01:35:00.281Z,65.00
2019-02-14T01:37:28.920Z,54.98
2019-02-14T01:39:57.570Z,63.02
2019-02-14T01:42:25.966Z,55.38
2019-02-14T01:44:54.370Z,64.80
2019-02-14T01:47:23.107Z,55.12
2019-02-14T01:49:51.501Z,59.38
2019-02-14T01:52:20.143Z,55.03
2019-02-14T01:54:48.533Z,51.00
2019-02-14T01:57:17.233Z,59.03
2019-02-14T01:59:45.627Z,63.35
2019-02-14T02:02:14.292Z,57.33
2019-02-14T02:04:42.984Z,50.83
2019-02-14T02:07:11.377Z,55.25
2019-02-14T02:09:39.780Z,47.75
2019-02-14T02:12:08.426Z,58.35
2019-02-14T02:14:36.827Z,55.23
2019-02-14T02:17:05.217Z,62.20
2019-02-14T02:19:33.699Z,52.38
2019-02-14T02:22:02.094Z,57.20
2019-02-14T02:24:30.503Z,59.00
2019-02-14T02:26:58.899Z,47.43
2019-02-14T02:29:27.593Z,62.25
2019-02-14T02:31:56.301Z,56.80
2019-02-14T02:34:24.977Z,60.73
2019-02-14T02:36:53.378Z,49.95
2019-02-14T02:39:22.030Z,54.73
2019-02-14T02:41:50.486Z,65.32
2019-02-14T02:44:19.202Z,58.08
2019-02-14T02:46:47.882Z,52.55
2019-02-14T02:49:16.286Z,87.67
2019-02-14T02:51:44.950Z,52.53
2019-02-14T02:54:13.429Z,46.00
2019-02-14T02:56:42.111Z,56.25
2019-02-14T02:59:10.504Z,52.93
2019-02-14T03:01:38.910Z,54.90
2019-02-14T03:04:07.556Z,55.33
2019-02-14T03:06:36.242Z,47.78
2019-02-14T03:09:05.812Z,57.58
2019-02-14T03:11:34.534Z,54.85
2019-02-14T03:14:03.220Z,61.53
2019-02-14T03:16:31.913Z,54.00
2019-02-14T03:19:00.625Z,53.78
2019-02-14T03:21:48.765Z,53.73
2019-02-14T03:24:17.171Z,54.45
2019-02-14T03:26:45.828Z,60.28
2019-02-14T03:29:14.219Z,58.52
2019-02-14T03:31:42.626Z,58.75
2019-02-14T03:34:11.272Z,59.35
2019-02-14T03:36:39.747Z,51.48
2019-02-14T03:39:08.439Z,59.88
2019-02-14T03:41:37.123Z,67.70
2019-02-14T03:44:05.808Z,57.78
2019-02-14T03:46:34.264Z,56.10
2019-02-14T03:49:02.979Z,55.92
2019-02-14T03:51:31.379Z,63.55
2019-02-14T03:53:59.996Z,63.65
2019-02-14T03:56:28.393Z,59.77
2019-02-14T03:58:57.110Z,55.33
2019-02-14T04:01:25.792Z,50.95
2019-02-14T04:03:54.175Z,53.85
2019-02-14T04:06:27.425Z,53.23
2019-02-14T04:08:53.070Z,52.98
2019-02-14T04:11:21.458Z,52.45
2019-02-14T04:13:49.863Z,66.05
2019-02-14T04:16:18.253Z,45.67
2019-02-14T04:18:46.651Z,49.65
2019-02-14T04:21:15.383Z,61.63
2019-02-14T04:23:44.037Z,49.13
2019-02-14T04:26:12.755Z,53.38
2019-02-14T04:28:41.148Z,75.32
2019-02-14T04:31:09.820Z,54.53
2019-02-14T04:33:38.445Z,48.63
2019-02-14T04:36:07.244Z,49.45
2019-02-14T04:38:35.630Z,60.20
2019-02-14T04:41:04.366Z,50.63
2019-02-14T04:43:33.044Z,54.35
2019-02-14T04:46:01.435Z,49.13
2019-02-14T04:48:29.840Z,56.70
2019-02-14T04:50:58.228Z,44.58
2019-02-14T04:53:26.633Z,55.17
2019-02-14T04:55:55.349Z,48.25
2019-02-14T04:58:23.739Z,56.80
2019-02-14T05:00:52.146Z,56.73
2019-02-14T05:03:20.529Z,49.50
2019-02-14T05:05:48.936Z,61.85
2019-02-14T05:08:17.652Z,63.35
2019-02-14T05:10:46.336Z,51.35
2019-02-14T05:13:14.728Z,58.20
2019-02-14T05:15:43.119Z,73.40
2019-02-14T05:18:11.885Z,47.33
2019-02-14T05:20:40.569Z,45.65
2019-02-14T05:23:08.970Z,68.15
2019-02-14T05:25:37.373Z,53.05
2019-02-14T05:28:05.772Z,54.15
2019-02-14T05:30:34.400Z,51.50
2019-02-14T05:33:02.784Z,47.40
2019-02-14T05:35:31.192Z,51.20
2019-02-14T05:37:59.589Z,57.55
2019-02-14T05:40:28.319Z,54.00
2019-02-14T05:42:56.705Z,55.05
2019-02-14T05:45:25.114Z,66.37
2019-02-14T05:47:53.506Z,49.18
2019-02-14T05:50:21.903Z,45.58
2019-02-14T05:52:50.300Z,67.67
2019-02-14T05:55:18.729Z,47.83
2019-02-14T05:57:47.381Z,56.08
2019-02-14T06:00:55.939Z,52.90
2019-02-14T06:03:24.689Z,53.10
2019-02-14T06:05:53.076Z,52.27
2019-02-14T06:08:21.497Z,50.75
2019-02-14T06:10:50.245Z,52.70
2019-02-14T06:13:18.878Z,55.23
2019-02-14T06:15:47.673Z,56.65
2019-02-14T06:18:16.067Z,56.18
2019-02-14T06:20:44.708Z,51.00
2019-02-14T06:23:13.102Z,50.92
2019-02-14T06:25:41.518Z,53.17
2019-02-14T06:28:10.217Z,60.70
2019-02-14T06:30:38.617Z,52.75
2019-02-14T06:33:07.277Z,59.08
2019-02-14T06:35:35.684Z,62.48
2019-02-14T06:38:04.377Z,61.33
2019-02-14T06:40:32.733Z,51.35
2019-02-14T06:43:01.138Z,59.70
2019-02-14T06:45:29.529Z,53.73
2019-02-14T06:47:58.267Z,67.20
2019-02-14T06:50:34.429Z,50.15
2019-02-14T06:52:56.777Z,57.50
2019-02-14T06:55:25.197Z,54.08
2019-02-14T06:57:53.933Z,54.75
2019-02-14T07:00:22.325Z,50.03
2019-02-14T07:02:50.713Z,68.78
2019-02-14T07:05:19.378Z,51.25
2019-02-14T07:07:47.765Z,52.60
2019-02-14T07:10:16.176Z,45.15
2019-02-14T07:12:44.559Z,64.05
2019-02-14T07:15:32.304Z,56.37
2019-02-14T07:18:00.712Z,48.58
2019-02-14T07:20:48.763Z,58.02
2019-02-14T07:23:17.147Z,49.85
2019-02-14T07:25:45.542Z,53.85
2019-02-14T07:28:14.178Z,59.53
2019-02-14T07:30:42.558Z,54.58
2019-02-14T07:33:10.964Z,62.27
2019-02-14T07:35:39.347Z,53.17
2019-02-14T07:38:08.044Z,49.35
2019-02-14T07:40:36.675Z,52.80
2019-02-14T07:43:05.412Z,51.00
2019-02-14T07:45:34.089Z,47.98
2019-02-14T07:48:02.774Z,45.28
2019-02-14T07:50:31.460Z,53.63
2019-02-14T07:52:59.904Z,63.80
2019-02-14T07:55:28.624Z,49.27
2019-02-14T07:57:57.311Z,50.98
2019-02-14T08:00:25.718Z,53.15
2019-02-14T08:03:13.446Z,47.62
2019-02-14T08:05:42.108Z,48.58
2019-02-14T08:08:10.814Z,47.43
2019-02-14T08:10:39.253Z,47.65
2019-02-14T08:13:07.652Z,43.23
2019-02-14T08:15:36.040Z,56.53
2019-02-14T08:18:04.508Z,52.23
2019-02-14T08:20:32.896Z,50.90
2019-02-14T08:23:01.542Z,50.20
2019-02-14T08:25:30.262Z,51.40
2019-02-14T08:27:59.048Z,46.48
2019-02-14T08:30:27.741Z,49.27
2019-02-14T08:32:56.371Z,55.03
2019-02-14T08:35:25.114Z,48.92
2019-02-14T08:37:54.106Z,50.52
2019-02-14T08:40:43.257Z,65.52
2019-02-14T08:43:11.720Z,62.05
2019-02-14T08:45:40.435Z,58.28
2019-02-14T08:48:08.879Z,56.37
2019-02-14T08:50:37.296Z,64.27
2019-02-14T08:53:05.663Z,57.98
2019-02-14T08:55:34.360Z,45.03
2019-02-14T08:58:02.831Z,73.00
2019-02-14T09:00:31.212Z,50.03
2019-02-14T09:03:00.012Z,57.48
2019-02-14T09:05:28.795Z,53.83
2019-02-14T09:07:57.188Z,58.17
2019-02-14T09:10:25.863Z,60.58
2019-02-14T09:12:54.651Z,54.50
2019-02-14T09:15:23.056Z,59.23
2019-02-14T09:17:51.504Z,57.20
2019-02-14T09:20:59.774Z,57.27
2019-02-14T09:23:28.166Z,68.28
2019-02-14T09:26:15.919Z,54.65
2019-02-14T09:28:44.663Z,59.67
2019-02-14T09:31:13.315Z,63.75
2019-02-14T09:33:41.995Z,55.48
2019-02-14T09:36:10.680Z,53.40
2019-02-14T09:38:39.367Z,79.40
2019-02-14T09:41:07.761Z,65.90
2019-02-14T09:43:36.183Z,64.05
2019-02-14T09:46:04.819Z,56.70
2019-02-14T09:48:33.205Z,65.25
2019-02-14T09:51:01.895Z,54.03
2019-02-14T09:53:30.290Z,61.23
2019-02-14T09:56:18.016Z,52.67
2019-02-14T09:58:46.635Z,66.13
2019-02-14T10:01:15.376Z,62.13
2019-02-14T10:03:44.056Z,59.65
2019-02-14T10:06:12.446Z,65.37
2019-02-14T10:08:40.834Z,68.67
2019-02-14T10:11:09.588Z,63.20
2019-02-14T10:13:38.278Z,61.83
2019-02-14T10:16:06.962Z,62.70
2019-02-14T10:18:35.649Z,59.90
2019-02-14T10:21:04.043Z,60.33
2019-02-14T10:23:32.770Z,65.28
2019-02-14T10:26:01.420Z,70.83
2019-02-14T10:28:30.082Z,54.18
2019-02-14T10:30:58.502Z,61.48
2019-02-14T10:33:27.251Z,63.45
2019-02-14T10:35:55.967Z,57.85
2019-02-14T10:38:24.317Z,53.03
2019-02-14T10:40:52.723Z,54.75
2019-02-14T10:43:21.494Z,67.60
2019-02-14T10:45:50.170Z,67.55
2019-02-14T10:48:18.867Z,55.28
2019-02-14T10:50:47.251Z,56.20
2019-02-14T10:53:15.936Z,53.47
2019-02-14T10:55:44.336Z,51.93
2019-02-14T10:58:12.772Z,49.43
2019-02-14T11:00:41.155Z,62.23
2019-02-14T11:03:09.943Z,63.90
2019-02-14T11:05:38.332Z,61.73
2019-02-14T11:08:07.011Z,42.80
2019-02-14T11:10:35.406Z,44.20
2019-02-14T11:13:04.080Z,46.47
2019-02-14T11:15:32.522Z,39.20
2019-02-14T11:18:01.264Z,34.07
2019-02-14T11:20:29.928Z,34.47
2019-02-14T11:22:58.614Z,40.53
2019-02-14T11:25:46.422Z,48.10
2019-02-14T11:28:14.804Z,50.83
2019-02-14T11:30:43.359Z,48.43
2019-02-14T11:33:31.327Z,43.37
2019-02-14T11:36:00.036Z,40.13
2019-02-14T11:38:28.424Z,44.20
2019-02-14T11:40:56.853Z,36.23
2019-02-14T11:43:25.480Z,37.00
2019-02-14T11:45:54.166Z,30.90
2019-02-14T11:48:22.852Z,40.50
2019-02-14T11:50:51.581Z,49.10
2019-02-14T11:53:19.915Z,44.17
2019-02-14T11:55:48.315Z,33.87
2019-02-14T11:58:16.704Z,43.00
2019-02-14T12:00:45.371Z,37.67
2019-02-14T12:03:13.773Z,40.03
2019-02-14T12:05:42.423Z,33.10
2019-02-14T12:08:11.111Z,30.80
2019-02-14T12:10:39.807Z,33.80
2019-02-14T12:13:08.193Z,38.37
2019-02-14T12:15:36.576Z,36.30
2019-02-14T12:18:04.983Z,42.70
2019-02-14T12:20:33.637Z,42.30
2019-02-14T12:23:02.019Z,37.23
2019-02-14T12:26:10.591Z,35.27
2019-02-14T12:28:38.974Z,37.57
2019-02-14T12:31:07.362Z,38.77
2019-02-14T12:33:35.813Z,34.60
2019-02-14T12:36:04.214Z,42.00
2019-02-14T12:38:32.597Z,33.27
2019-02-14T12:41:01.000Z,39.90
2019-02-14T12:43:29.676Z,46.87
2019-02-14T12:45:58.377Z,36.57
2019-02-14T12:48:27.050Z,42.87
2019-02-14T12:50:55.440Z,38.13
2019-02-14T12:53:23.825Z,38.60
2019-02-14T12:55:52.229Z,49.50
2019-02-14T12:58:20.872Z,34.60
2019-02-14T13:00:49.264Z,41.27
2019-02-14T13:03:17.664Z,41.03
2019-02-14T13:08:33.847Z,29.90
2019-02-14T13:11:02.528Z,36.20
2019-02-14T13:13:30.912Z,36.93
2019-02-14T13:15:59.652Z,30.93
2019-02-14T13:18:28.382Z,29.70
2019-02-14T13:20:56.828Z,23.07
2019-02-14T13:23:25.548Z,28.73
2019-02-14T13:25:53.992Z,31.73
2019-02-14T13:28:22.717Z,26.97
2019-02-14T13:30:51.423Z,25.37
2019-02-14T13:33:19.794Z,22.43
2019-02-14T13:35:48.183Z,26.53
2019-02-14T13:38:16.580Z,28.03
2019-02-14T13:40:45.224Z,30.93
2019-02-14T13:43:13.609Z,27.70
2019-02-14T13:45:42.289Z,27.40
2019-02-14T13:48:10.675Z,25.03
2019-02-14T13:50:39.061Z,31.17
2019-02-14T13:53:07.532Z,26.93
2019-02-14T13:55:35.943Z,25.87
2019-02-14T13:58:04.377Z,41.63
2019-02-14T14:00:33.189Z,34.37
2019-02-14T14:03:01.880Z,38.93
2019-02-14T14:05:30.321Z,53.50
2019-02-14T14:07:58.727Z,48.33
2019-02-14T14:10:27.111Z,34.33
2019-02-14T14:12:55.519Z,49.43
2019-02-14T14:15:23.918Z,36.07
2019-02-14T14:17:52.305Z,32.70
2019-02-14T14:20:21.023Z,34.10
2019-02-14T14:22:49.711Z,38.63
2019-02-14T14:25:18.501Z,35.10
2019-02-14T14:27:46.889Z,30.43
2019-02-14T14:30:15.364Z,35.73
2019-02-14T14:32:43.769Z,40.97
2019-02-14T14:35:12.287Z,29.97
2019-02-14T14:37:40.775Z,40.57
2019-02-14T14:40:49.065Z,34.23
2019-02-14T14:46:16.094Z,31.67
2019-02-14T14:51:33.831Z,28.57
2019-02-14T14:54:02.467Z,26.53
2019-02-14T14:56:30.842Z,31.73
2019-02-14T14:58:59.258Z,34.07
2019-02-14T15:01:34.546Z,31.80
2019-02-14T15:04:03.202Z,30.70
2019-02-14T15:06:31.844Z,37.73
2019-02-14T15:09:00.228Z,30.67
2019-02-14T15:11:28.684Z,32.07
2019-02-14T15:13:57.096Z,33.43
2019-02-14T15:16:25.753Z,35.00
2019-02-14T15:18:54.396Z,35.43
2019-02-14T15:21:22.801Z,35.47
2019-02-14T15:23:51.460Z,27.50
2019-02-14T15:26:20.083Z,29.90
2019-02-14T15:28:48.727Z,29.80
2019-02-14T15:31:17.119Z,36.03
2019-02-14T15:33:45.792Z,44.47
2019-02-14T15:36:14.201Z,39.27
2019-02-14T15:38:42.591Z,33.47
2019-02-14T15:41:11.216Z,44.03
2019-02-14T15:43:39.928Z,43.50
2019-02-14T15:46:08.611Z,49.10
2019-02-14T15:48:36.995Z,47.60
2019-02-14T15:51:05.476Z,39.87
2019-02-14T15:53:33.860Z,44.47
2019-02-14T15:56:03.411Z,35.30
2019-02-14T15:58:33.194Z,37.30
2019-02-14T16:01:01.775Z,41.17
2019-02-14T16:03:30.391Z,39.60
2019-02-14T16:05:59.121Z,36.67
2019-02-14T16:08:27.810Z,41.77
2019-02-14T16:10:56.516Z,48.40
2019-02-14T16:13:25.179Z,33.77
2019-02-14T16:15:55.592Z,34.47
2019-02-14T16:18:25.240Z,36.73
2019-02-14T16:20:53.787Z,34.03
2019-02-14T16:23:41.841Z,48.67
2019-02-14T16:26:10.237Z,45.13
2019-02-14T16:28:39.856Z,43.97
2019-02-14T16:31:08.740Z,39.50
2019-02-14T16:33:37.399Z,42.50
2019-02-14T16:36:05.796Z,45.63
2019-02-14T16:38:35.539Z,38.83
2019-02-14T16:41:04.587Z,41.70
2019-02-14T16:43:33.267Z,50.57
2019-02-14T16:46:01.664Z,50.40
2019-02-14T16:48:30.347Z,67.90
2019-02-14T16:50:58.739Z,48.37
2019-02-14T16:53:27.135Z,69.10
2019-02-14T16:56:01.853Z,118.77
2019-02-14T16:58:25.671Z,71.57
2019-02-14T17:00:54.079Z,66.43
2019-02-14T17:03:22.444Z,55.07
2019-02-14T17:05:50.860Z,48.73
2019-02-14T17:08:19.615Z,72.67
2019-02-14T17:10:48.303Z,58.47
2019-02-14T17:13:16.925Z,49.73
2019-02-14T17:15:45.676Z,72.93
2019-02-14T17:18:14.359Z,53.87
2019-02-14T17:20:42.752Z,67.27
2019-02-14T17:23:11.369Z,50.40
2019-02-14T17:25:40.011Z,65.80
2019-02-14T17:28:08.707Z,61.90
2019-02-14T17:30:37.323Z,67.50
2019-02-14T17:33:06.067Z,72.17
2019-02-14T17:35:34.688Z,64.90
2019-02-14T17:38:03.072Z,64.33
2019-02-14T17:40:31.473Z,56.10
2019-02-14T17:43:00.231Z,72.22
2019-02-14T17:45:48.117Z,85.70
2019-02-14T17:48:16.574Z,78.77
2019-02-14T17:50:45.024Z,82.50
2019-02-14T17:53:13.695Z,93.43
2019-02-14T17:55:42.165Z,110.12
2019-02-14T17:58:10.624Z,91.05
2019-02-14T18:03:28.116Z,98.10
2019-02-14T18:05:56.525Z,52.73
2019-02-14T18:08:25.146Z,67.82
2019-02-14T18:10:55.201Z,61.85
2019-02-14T18:13:23.660Z,64.37
2019-02-14T18:15:52.337Z,62.93
2019-02-14T18:18:21.022Z,79.42
2019-02-14T18:20:49.705Z,69.35
2019-02-14T18:23:30.487Z,58.45
2019-02-14T18:25:58.896Z,54.73
2019-02-14T18:28:27.274Z,56.03
2019-02-14T18:30:56.928Z,75.67
2019-02-14T18:33:27.266Z,85.62
2019-02-14T18:35:55.659Z,63.55
2019-02-14T18:38:24.071Z,98.78
2019-02-14T18:40:52.750Z,76.40
2019-02-14T18:43:21.404Z,96.47
2019-02-14T18:45:49.800Z,71.60
2019-02-14T18:48:18.469Z,87.40
2019-02-14T18:50:46.874Z,84.15
2019-02-14T18:53:15.523Z,77.05
2019-02-14T18:55:43.932Z,78.55
2019-02-14T18:58:12.578Z,75.50
2019-02-14T19:00:41.228Z,82.82
2019-02-14T19:03:09.874Z,78.65
2019-02-14T19:05:57.938Z,93.75
2019-02-14T19:08:26.338Z,95.10
2019-02-14T19:10:54.735Z,88.42
2019-02-14T19:13:23.140Z,75.25
2019-02-14T19:15:51.535Z,84.00
2019-02-14T19:18:20.233Z,88.78
2019-02-14T19:20:48.640Z,123.62
2019-02-14T19:23:24.183Z,83.50
2019-02-14T19:25:47.160Z,78.22
2019-02-14T19:28:15.565Z,64.32
2019-02-14T19:30:43.975Z,89.32
2019-02-14T19:33:12.408Z,75.92
2019-02-14T19:35:40.824Z,120.05
2019-02-14T19:38:09.519Z,118.67
2019-02-14T19:40:37.936Z,131.22
2019-02-14T19:43:06.685Z,111.68
2019-02-14T19:45:36.830Z,124.67
2019-02-14T19:48:05.482Z,131.12
2019-02-14T19:50:34.123Z,133.67
2019-02-14T19:53:02.605Z,154.75
2019-02-14T19:55:31.025Z,167.80
2019-02-14T19:57:59.687Z,155.18
2019-02-14T20:00:28.341Z,131.52
2019-02-14T20:02:56.991Z,101.42
2019-02-14T20:05:25.413Z,113.35
2019-02-14T20:07:54.053Z,61.20
2019-02-14T20:10:22.473Z,87.27
2019-02-14T20:12:51.118Z,72.90
2019-02-14T20:15:59.598Z,78.62
2019-02-14T20:18:28.242Z,67.90
2019-02-14T20:20:56.913Z,73.85
2019-02-14T20:23:25.555Z,76.60
2019-02-14T20:25:54.261Z,79.80
2019-02-14T20:28:42.082Z,61.02
2019-02-14T20:31:10.502Z,93.85
2019-02-14T20:33:38.892Z,75.78
2019-02-14T20:36:07.547Z,68.15
2019-02-14T20:38:35.941Z,79.53
2019-02-14T20:41:04.703Z,67.03
2019-02-14T20:43:33.110Z,59.98
2019-02-14T20:46:01.567Z,65.90
2019-02-14T20:48:29.984Z,82.88
2019-02-14T20:50:58.368Z,72.97
2019-02-14T20:53:26.778Z,71.80
2019-02-14T20:55:55.183Z,77.08
2019-02-14T20:58:23.968Z,64.65
2019-02-14T21:00:52.379Z,62.60
2019-02-14T21:03:21.038Z,72.20
2019-02-14T21:05:49.720Z,84.13
2019-02-14T21:08:18.112Z,75.52
2019-02-14T21:10:46.506Z,76.95
2019-02-14T21:13:14.992Z,128.95
2019-02-14T21:15:43.793Z,87.53
2019-02-14T21:18:12.535Z,89.45
2019-02-14T21:21:00.575Z,84.52
2019-02-14T21:23:29.259Z,77.87
2019-02-14T21:26:17.236Z,89.42
2019-02-14T21:28:46.002Z,82.35
2019-02-14T21:31:14.400Z,73.72
2019-02-14T21:33:42.788Z,105.30
2019-02-14T21:36:11.193Z,84.85
2019-02-14T21:38:39.676Z,85.65
2019-02-14T21:41:08.158Z,90.67
2019-02-14T21:44:16.442Z,83.90
2019-02-14T21:46:44.865Z,81.90
2019-02-14T21:49:13.250Z,79.92
2019-02-14T21:51:41.891Z,73.05
2019-02-14T21:54:10.312Z,73.28
2019-02-14T21:56:38.715Z,67.82
2019-02-14T21:59:07.148Z,65.65
2019-02-14T22:01:35.523Z,66.12
2019-02-14T22:04:03.925Z,63.87
2019-02-14T22:06:32.315Z,69.05
2019-02-14T22:09:00.727Z,72.25
2019-02-14T22:11:33.976Z,70.70
2019-02-14T22:13:59.607Z,84.50
2019-02-14T22:16:27.981Z,76.40
2019-02-14T22:18:56.378Z,60.48
2019-02-14T22:21:24.777Z,76.87
2019-02-14T22:23:53.164Z,66.90
2019-02-14T22:26:21.900Z,73.35
2019-02-14T22:28:50.284Z,69.17
2019-02-14T22:31:18.967Z,76.50
2019-02-14T22:33:47.367Z,70.15
2019-02-14T22:36:15.776Z,75.32
2019-02-14T22:39:26.315Z,71.97
2019-02-14T22:41:54.533Z,80.85
2019-02-14T22:44:22.936Z,64.62
2019-02-14T22:46:51.324Z,60.38
2019-02-14T22:49:19.745Z,75.60
2019-02-14T22:51:48.388Z,83.90
2019-02-14T22:54:17.077Z,69.92
2019-02-14T22:56:45.812Z,71.90
2019-02-14T22:59:14.204Z,78.85
2019-02-14T23:02:22.760Z,72.20
2019-02-14T23:04:51.165Z,78.05
2019-02-14T23:07:19.558Z,75.22
2019-02-14T23:09:47.955Z,65.37
2019-02-14T23:12:16.368Z,86.50
2019-02-14T23:14:44.763Z,68.22
2019-02-14T23:17:13.505Z,97.67
2019-02-14T23:19:42.153Z,87.45
2019-02-14T23:22:10.561Z,91.60
2019-02-14T23:24:38.962Z,77.67
2019-02-14T23:27:07.639Z,103.67
2019-02-14T23:29:36.296Z,92.72
2019-02-14T23:32:04.712Z,77.90
2019-02-14T23:34:33.391Z,79.55
2019-02-14T23:37:01.800Z,100.60
2019-02-14T23:39:30.215Z,74.17
2019-02-14T23:41:58.614Z,99.80
2019-02-14T23:44:27.192Z,72.05
2019-02-14T23:46:55.891Z,78.87
2019-02-14T23:49:24.589Z,83.25
2019-02-14T23:51:53.374Z,59.93
2019-02-14T23:54:22.010Z,77.50
2019-02-14T23:56:50.745Z,63.87
2019-02-14T23:59:19.420Z,63.15
